Time;durP1;ratioP1;P1;durP2;ratioP2;P2;SDS_P1;SDS_P2;PMS_P1;PMS_P2;Temp;Humidity;BMP_temperature;BMP_pressure;BME280_temperature;BME280_humidity;BME280_pressure;Samples;Min_cycle;Max_cycle;Signal;HPM_P1;HPM_P2
2023/06/11 00:02:15;;;;;;;4.55;4.15;;;;;;;20.12;99.65;97533.38;5020401;28;20198;-57
2023/06/11 00:04:45;;;;;;;7.78;4.72;;;;;;;20.10;99.16;97511.75;5030231;28;20209;-57
2023/06/11 00:07:11;;;;;;;5.28;4.65;;;;;;;20.20;98.39;97501.72;5030329;28;20186;-57
2023/06/11 00:09:36;;;;;;;11.10;5.05;;;;;;;20.19;98.99;97506.19;5030209;28;20208;-57
2023/06/11 00:12:01;;;;;;;6.22;5.03;;;;;;;20.17;99.67;97491.59;4990715;28;20364;-57
2023/06/11 00:14:27;;;;;;;4.90;4.38;;;;;;;20.21;100.00;97498.91;4990760;28;20245;-57
2023/06/11 00:16:52;;;;;;;7.13;5.18;;;;;;;20.42;98.46;97527.00;4990717;28;20191;-57
2023/06/11 00:19:19;;;;;;;10.35;4.38;;;;;;;20.29;96.58;97498.00;4991010;28;20187;-57
2023/06/11 00:21:45;;;;;;;5.50;5.00;;;;;;;20.25;96.64;97497.56;4989732;28;20195;-57
2023/06/11 00:24:12;;;;;;;5.85;4.65;;;;;;;20.47;95.45;97517.59;4971029;28;20303;-57
2023/06/11 00:26:38;;;;;;;7.28;4.22;;;;;;;20.49;94.97;97520.00;4971140;28;20230;-57
2023/06/11 00:29:04;;;;;;;5.15;4.22;;;;;;;20.47;94.33;97512.31;4971194;28;20196;-57
2023/06/11 00:31:29;;;;;;;4.38;4.07;;;;;;;20.45;95.87;97518.78;5002091;28;20391;-57
2023/06/11 00:33:55;;;;;;;4.63;4.32;;;;;;;20.42;96.58;97512.06;5010121;28;20194;-57
2023/06/11 00:36:21;;;;;;;5.20;4.53;;;;;;;20.45;96.88;97521.41;5010010;28;20206;-57
2023/06/11 00:38:48;;;;;;;4.93;4.53;;;;;;;20.37;97.57;97513.63;5009992;28;20214;-57
2023/06/11 00:41:14;;;;;;;4.55;4.07;;;;;;;20.45;96.40;97527.44;5010022;28;20269;-57
2023/06/11 00:43:40;;;;;;;4.85;4.45;;;;;;;20.61;94.37;97529.81;5040324;28;20283;-57
2023/06/11 00:46:10;;;;;;;5.00;4.53;;;;;;;20.49;94.18;97517.38;5049482;28;20204;-57
2023/06/11 00:48:36;;;;;;;5.13;4.07;;;;;;;20.53;94.10;97519.44;5049573;28;20235;-57
2023/06/11 00:51:02;;;;;;;6.43;4.57;;;;;;;20.56;91.44;97519.06;5049695;28;20184;-57
2023/06/11 00:53:28;;;;;;;4.63;4.03;;;;;;;20.48;94.07;97515.75;5049660;28;20185;-57
2023/06/11 00:55:53;;;;;;;5.28;3.95;;;;;;;20.43;95.96;97523.38;5067306;28;20180;-57
2023/06/11 00:58:20;;;;;;;5.38;4.55;;;;;;;20.26;98.57;97533.31;5071978;28;20172;-57
2023/06/11 01:00:49;;;;;;;5.93;4.20;;;;;;;20.05;99.56;97506.19;5071863;28;20187;-57
2023/06/11 01:03:18;;;;;;;4.88;4.40;;;;;;;20.05;99.95;97529.84;5071892;28;20192;-57
2023/06/11 01:06:01;;;;;;;4.85;4.45;;;;;;;20.17;99.94;97528.38;5071808;28;20207;-57
2023/06/11 01:08:26;;;;;;;9.27;4.72;;;;;;;20.22;100.00;97533.91;5071891;28;20188;-57
2023/06/11 01:10:52;;;;;;;5.82;4.65;;;;;;;20.24;98.61;97518.75;5071864;28;20622;-57
2023/06/11 01:13:17;;;;;;;5.53;4.38;;;;;;;20.17;98.71;97531.00;5071566;28;20631;-57
2023/06/11 01:15:43;;;;;;;5.10;4.60;;;;;;;20.13;99.51;97527.94;5071543;28;20204;-57
2023/06/11 01:18:19;;;;;;;5.35;4.38;;;;;;;20.21;97.48;97513.84;5071803;28;20595;-57
2023/06/11 01:20:58;;;;;;;7.32;4.57;;;;;;;20.18;95.03;97509.81;5071758;28;20172;-57
2023/06/11 01:23:41;;;;;;;4.55;4.22;;;;;;;20.21;95.01;97519.09;5009661;28;20183;-57
2023/06/11 01:26:18;;;;;;;9.07;4.70;;;;;;;20.28;95.59;97531.31;5009613;28;20198;-57
2023/06/11 01:28:49;;;;;;;6.95;4.85;;;;;;;20.27;96.43;97529.69;5009770;28;20198;-57
2023/06/11 01:31:15;;;;;;;6.00;4.38;;;;;;;20.26;97.33;97530.69;5001853;28;20230;-57
2023/06/11 01:33:44;;;;;;;6.47;4.68;;;;;;;20.22;97.66;97531.25;5012221;28;20268;-57
2023/06/11 01:36:11;;;;;;;5.88;4.53;;;;;;;20.25;96.95;97520.38;5013223;28;20198;-57
2023/06/11 01:38:41;;;;;;;7.13;4.78;;;;;;;20.31;97.24;97535.38;5013172;28;20186;-57
2023/06/11 01:41:11;;;;;;;5.97;4.63;;;;;;;20.10;98.39;97515.16;5013188;28;20206;-58
2023/06/11 01:43:36;;;;;;;6.65;4.70;;;;;;;20.06;98.79;97516.53;5013097;28;20191;-57
2023/06/11 01:46:03;;;;;;;4.90;4.32;;;;;;;20.05;97.78;97509.63;5013060;28;20720;-57
2023/06/11 01:48:28;;;;;;;6.82;6.05;;;;;;;20.09;96.17;97525.84;5013109;28;20190;-57
2023/06/11 01:50:54;;;;;;;4.97;4.47;;;;;;;20.12;93.21;97515.78;5013052;28;20231;-57
2023/06/11 01:53:19;;;;;;;6.13;5.30;;;;;;;20.21;93.62;97530.44;5015498;28;20183;-57
2023/06/11 01:55:45;;;;;;;5.60;5.15;;;;;;;20.20;94.53;97539.31;5071350;28;20326;-57
2023/06/11 01:58:11;;;;;;;5.15;4.75;;;;;;;20.14;94.43;97528.72;5074633;28;20196;-57
2023/06/11 02:00:37;;;;;;;8.20;4.70;;;;;;;20.38;95.38;97562.53;5074784;28;20184;-56
2023/06/11 02:03:02;;;;;;;10.40;5.10;;;;;;;20.30;98.94;97539.84;5074560;28;20526;-56
2023/06/11 02:05:28;;;;;;;7.53;5.60;;;;;;;20.27;100.00;97547.25;5074741;28;20196;-56
2023/06/11 02:07:53;;;;;;;8.05;6.03;;;;;;;20.37;100.00;97566.16;5074758;28;20648;-56
2023/06/11 02:10:19;;;;;;;9.18;5.38;;;;;;;20.21;100.00;97546.19;5074682;28;20177;-57
2023/06/11 02:12:44;;;;;;;6.40;5.40;;;;;;;20.12;100.00;97533.38;5074556;28;20188;-57
2023/06/11 02:15:10;;;;;;;6.65;5.40;;;;;;;20.16;100.00;97542.50;5074616;28;20279;-57
2023/06/11 02:17:35;;;;;;;5.25;4.78;;;;;;;20.23;100.00;97544.19;5074293;28;20164;-57
2023/06/11 02:20:05;;;;;;;4.60;4.20;;;;;;;20.05;99.59;97524.59;5074276;28;20179;-57
2023/06/11 02:22:31;;;;;;;4.95;4.55;;;;;;;20.14;97.62;97549.75;5074496;28;20187;-57
2023/06/11 02:24:57;;;;;;;6.18;4.10;;;;;;;20.03;96.87;97531.81;5012139;28;20740;-57
2023/06/11 02:27:22;;;;;;;4.60;4.20;;;;;;;20.04;99.28;97557.09;5012283;28;20195;-57
2023/06/11 02:29:47;;;;;;;4.63;4.22;;;;;;;20.05;100.00;97540.34;5011964;28;20202;-57
2023/06/11 02:32:13;;;;;;;5.35;4.55;;;;;;;19.95;100.00;97532.75;5012264;28;20183;-57
2023/06/11 02:34:38;;;;;;;7.15;5.05;;;;;;;19.72;100.00;97534.69;5012193;28;20277;-57
2023/06/11 02:37:04;;;;;;;5.88;4.50;;;;;;;19.88;100.00;97549.41;4972927;28;20754;-57
2023/06/11 02:39:29;;;;;;;7.32;4.93;;;;;;;19.83;100.00;97554.41;4973082;28;20188;-58
2023/06/11 02:41:55;;;;;;;5.95;5.15;;;;;;;19.83;100.00;97554.41;4972973;28;20291;-58
2023/06/11 02:44:23;;;;;;;5.10;4.70;;;;;;;19.56;100.00;97555.06;4971999;28;20219;-58
2023/06/11 02:46:48;;;;;;;6.30;5.05;;;;;;;19.38;100.00;97547.56;4972932;28;20262;-58
2023/06/11 02:49:14;;;;;;;5.50;4.93;;;;;;;19.35;100.00;97540.03;4972888;28;20698;-58
2023/06/11 02:51:39;;;;;;;5.50;5.00;;;;;;;19.37;100.00;97560.84;4972773;28;20252;-58
2023/06/11 02:54:05;;;;;;;6.25;5.38;;;;;;;19.21;100.00;97555.75;4972769;28;20211;-58
2023/06/11 02:56:30;;;;;;;8.88;5.60;;;;;;;19.03;100.00;97542.13;4972733;28;20694;-58
2023/06/11 02:58:56;;;;;;;11.10;6.20;;;;;;;19.22;100.00;97552.13;4972724;28;20231;-58
2023/06/11 03:01:21;;;;;;;8.40;5.70;;;;;;;19.32;100.00;97544.81;4977392;28;20596;-58
2023/06/11 03:03:46;;;;;;;7.80;5.90;;;;;;;19.28;100.00;97541.75;5031384;28;20679;-55
2023/06/11 03:06:12;;;;;;;6.18;5.28;;;;;;;19.35;100.00;97558.41;5031336;28;20198;-55
2023/06/11 03:08:37;;;;;;;6.22;5.57;;;;;;;19.48;100.00;97557.78;5062161;28;20192;-56
2023/06/11 03:11:03;;;;;;;6.65;5.40;;;;;;;19.41;100.00;97552.44;5073547;28;20537;-56
2023/06/11 03:13:28;;;;;;;7.80;6.00;;;;;;;19.32;100.00;97542.19;5031120;28;20193;-56
2023/06/11 03:15:55;;;;;;;8.68;5.65;;;;;;;19.51;100.00;97554.78;5031229;28;20197;-56
2023/06/11 03:18:20;;;;;;;9.10;5.38;;;;;;;19.50;100.00;97561.03;5031124;28;20197;-56
2023/06/11 03:20:46;;;;;;;8.30;6.03;;;;;;;19.66;100.00;97573.97;5031118;28;20296;-56
2023/06/11 03:23:14;;;;;;;7.82;5.68;;;;;;;19.69;100.00;97560.50;5031032;28;20248;-55
2023/06/11 03:25:39;;;;;;;9.50;5.80;;;;;;;19.88;100.00;97563.34;5030880;28;20206;-55
2023/06/11 03:28:04;;;;;;;5.50;5.00;;;;;;;19.95;100.00;97563.44;5030981;28;20190;-56
2023/06/11 03:30:30;;;;;;;9.32;5.90;;;;;;;20.08;100.00;97571.50;5031096;28;20196;-57
2023/06/11 03:32:55;;;;;;;9.20;6.07;;;;;;;20.06;100.00;97555.09;5030863;28;20182;-57
2023/06/11 03:35:21;;;;;;;9.40;5.53;;;;;;;20.12;100.00;97547.31;4991364;28;20295;-56
2023/06/11 03:37:46;;;;;;;8.93;5.22;;;;;;;20.27;100.00;97549.88;4991462;28;20222;-57
2023/06/11 03:40:12;;;;;;;7.35;5.72;;;;;;;20.45;100.00;97568.69;4991452;28;20680;-56
2023/06/11 03:42:37;;;;;;;5.55;5.05;;;;;;;20.52;100.00;97566.94;4991432;28;20676;-57
2023/06/11 03:45:03;;;;;;;5.60;4.45;;;;;;;20.49;99.66;97564.69;5020735;28;20216;-56
2023/06/11 03:47:29;;;;;;;6.00;4.57;;;;;;;20.44;98.97;97543.38;5030547;28;20185;-57
2023/06/11 03:49:54;;;;;;;5.05;4.50;;;;;;;20.53;99.79;97551.00;5030494;28;20190;-57
2023/06/11 03:52:20;;;;;;;5.45;4.95;;;;;;;20.71;99.95;97558.44;5030457;28;20639;-57
2023/06/11 03:54:45;;;;;;;4.97;4.40;;;;;;;20.84;99.15;97561.16;5030372;28;20225;-56
2023/06/11 03:57:12;;;;;;;5.38;4.82;;;;;;;20.88;97.39;97560.66;5030403;28;20675;-56
2023/06/11 03:59:38;;;;;;;5.05;4.18;;;;;;;20.93;96.86;97563.50;5030395;28;20221;-56
2023/06/11 04:02:04;;;;;;;5.03;4.50;;;;;;;20.90;97.40;97548.13;5030321;28;20186;-56
2023/06/11 04:04:29;;;;;;;5.97;4.57;;;;;;;21.01;98.59;97570.44;5030218;28;20177;-56
2023/06/11 04:06:55;;;;;;;4.70;4.30;;;;;;;21.06;97.49;97568.06;5061343;28;20659;-56
2023/06/11 04:09:20;;;;;;;7.40;5.13;;;;;;;21.03;97.39;97558.72;5072511;28;20183;-57
2023/06/11 04:11:46;;;;;;;5.20;4.80;;;;;;;20.99;97.75;97568.00;5072510;28;20226;-56
2023/06/11 04:14:11;;;;;;;7.70;4.40;;;;;;;20.90;97.40;97547.28;5072331;28;20203;-56
2023/06/11 04:16:36;;;;;;;4.78;4.38;;;;;;;20.96;97.89;97559.69;5072410;28;20176;-56
2023/06/11 04:19:02;;;;;;;5.05;4.50;;;;;;;20.82;97.39;97544.78;5072143;28;20230;-56
2023/06/11 04:21:27;;;;;;;5.50;4.25;;;;;;;20.95;97.77;97555.41;5010199;28;20183;-56
2023/06/11 04:23:53;;;;;;;4.75;4.35;;;;;;;20.94;96.70;97553.81;5010347;28;20186;-57
2023/06/11 04:26:20;;;;;;;5.28;4.80;;;;;;;21.05;96.28;97577.75;5010204;28;20242;-56
2023/06/11 04:28:48;;;;;;;5.85;4.20;;;;;;;21.05;96.59;97566.44;5010195;28;20280;-56
2023/06/11 04:31:14;;;;;;;4.75;4.43;;;;;;;21.14;96.91;97565.28;5010055;28;20203;-56
2023/06/11 04:33:40;;;;;;;4.60;4.30;;;;;;;21.11;96.79;97561.25;5010205;28;20294;-57
2023/06/11 04:36:07;;;;;;;5.53;4.05;;;;;;;21.21;97.59;97566.16;5010110;28;20191;-57
2023/06/11 04:38:37;;;;;;;6.35;4.97;;;;;;;21.22;97.58;97565.16;5010409;28;20194;-57
2023/06/11 04:41:08;;;;;;;5.50;4.38;;;;;;;21.34;98.42;97576.78;5010143;28;20194;-57
2023/06/11 04:43:34;;;;;;;6.82;5.03;;;;;;;21.29;97.02;97552.84;5010102;28;20210;-57
2023/06/11 04:46:03;;;;;;;7.07;5.22;;;;;;;21.50;98.03;97581.75;5009892;28;20229;-57
2023/06/11 04:48:31;;;;;;;6.57;5.78;;;;;;;21.42;98.91;97545.84;5010027;28;20273;-57
2023/06/11 04:51:00;;;;;;;7.28;5.50;;;;;;;21.67;98.71;97578.63;5009958;28;20556;-57
2023/06/11 04:53:29;;;;;;;7.70;5.00;;;;;;;21.76;96.92;97572.22;5066118;28;20188;-57
2023/06/11 04:55:57;;;;;;;6.03;5.40;;;;;;;21.83;98.18;97578.31;5071673;28;20599;-57
2023/06/11 04:58:24;;;;;;;6.75;5.93;;;;;;;21.57;99.46;97551.00;5009881;28;20197;-57
2023/06/11 05:00:51;;;;;;;9.25;6.43;;;;;;;21.81;99.11;97580.34;5009950;28;20202;-57
2023/06/11 05:03:17;;;;;;;8.15;6.45;;;;;;;21.87;99.33;97565.56;5009963;28;20206;-57
2023/06/11 05:05:49;;;;;;;10.13;7.30;;;;;;;21.89;99.74;97572.25;5009902;28;20789;-57
2023/06/11 05:08:18;;;;;;;7.85;7.05;;;;;;;21.97;98.95;97568.66;5012332;28;20205;-57
2023/06/11 05:10:45;;;;;;;8.63;6.72;;;;;;;22.19;98.60;97588.59;5013682;28;20284;-57
2023/06/11 05:13:13;;;;;;;9.95;7.07;;;;;;;22.21;96.64;97568.13;5033268;28;20196;-57
2023/06/11 05:15:39;;;;;;;9.20;6.15;;;;;;;22.23;95.67;97553.75;5033435;28;20244;-57
2023/06/11 05:18:05;;;;;;;6.63;5.72;;;;;;;22.45;94.84;97580.81;5033413;28;20202;-57
2023/06/11 05:20:30;;;;;;;8.40;4.93;;;;;;;22.59;92.04;97590.34;5033352;28;20260;-57
2023/06/11 05:23:02;;;;;;;5.50;4.82;;;;;;;22.72;90.52;97579.84;5033155;28;20197;-57
2023/06/11 05:25:28;;;;;;;5.45;4.95;;;;;;;22.71;89.54;97563.22;4974272;28;20235;-57
2023/06/11 05:27:57;;;;;;;5.10;4.63;;;;;;;22.95;87.03;97577.66;4974283;28;20206;-57
2023/06/11 05:30:25;;;;;;;5.70;4.53;;;;;;;22.93;87.45;97575.22;4992007;28;20244;-57
2023/06/11 05:32:51;;;;;;;4.53;4.20;;;;;;;23.06;85.86;97577.84;4993769;28;20693;-57
2023/06/11 05:35:17;;;;;;;4.88;4.47;;;;;;;23.20;85.55;97589.25;4993666;28;20206;-57
2023/06/11 05:37:43;;;;;;;4.07;3.65;;;;;;;23.21;84.20;97585.59;4993718;28;20187;-57
2023/06/11 05:40:11;;;;;;;5.70;4.88;;;;;;;23.28;81.30;97578.47;4993893;28;20226;-57
2023/06/11 05:42:36;;;;;;;6.07;4.32;;;;;;;23.53;77.69;97600.59;4993536;28;20273;-57
2023/06/11 05:45:02;;;;;;;6.95;4.53;;;;;;;23.63;78.22;97605.22;4993444;28;20717;-57
2023/06/11 05:47:27;;;;;;;7.22;4.80;;;;;;;23.72;78.83;97581.25;4993498;28;20195;-57
2023/06/11 05:49:52;;;;;;;6.22;5.20;;;;;;;23.75;78.98;97593.00;4994044;28;20332;-57
2023/06/11 05:52:18;;;;;;;6.53;5.22;;;;;;;23.86;78.51;97607.44;5013057;28;20675;-57
2023/06/11 05:54:43;;;;;;;5.65;5.10;;;;;;;23.98;77.30;97618.19;5012857;28;20575;-57
2023/06/11 05:57:22;;;;;;;4.65;4.22;;;;;;;23.97;76.78;97595.44;5028457;28;20186;-57
2023/06/11 05:59:48;;;;;;;5.90;4.45;;;;;;;24.17;75.13;97607.56;5032677;28;20186;-57
2023/06/11 06:02:14;;;;;;;5.32;4.82;;;;;;;24.27;73.33;97615.84;5012793;28;20186;-57
2023/06/11 06:04:40;;;;;;;5.53;4.68;;;;;;;24.30;73.64;97613.59;5012578;28;20225;-57
2023/06/11 06:07:05;;;;;;;6.60;4.85;;;;;;;24.24;73.30;97609.16;5012745;28;20294;-57
2023/06/11 06:09:33;;;;;;;4.72;4.32;;;;;;;24.24;72.18;97610.97;5012658;28;20182;-57
2023/06/11 06:12:00;;;;;;;6.22;4.65;;;;;;;24.35;71.89;97616.44;4954121;28;20291;-57
2023/06/11 06:14:25;;;;;;;4.35;4.05;;;;;;;24.45;70.75;97619.41;4938133;29;20311;-57
2023/06/11 06:16:51;;;;;;;5.03;4.53;;;;;;;24.49;71.66;97620.63;4934825;29;20639;-57
2023/06/11 06:19:16;;;;;;;6.03;4.80;;;;;;;24.41;71.56;97596.25;4933646;29;20185;-57
2023/06/11 06:21:41;;;;;;;6.65;4.05;;;;;;;24.48;71.96;97591.72;4951116;29;20184;-57
2023/06/11 06:24:07;;;;;;;8.32;4.68;;;;;;;24.72;70.46;97618.28;4954121;29;20663;-57
2023/06/11 06:26:32;;;;;;;6.32;4.25;;;;;;;24.76;70.77;97621.31;4934653;29;20256;-57
2023/06/11 06:28:58;;;;;;;5.07;4.07;;;;;;;24.82;70.68;97623.94;4934634;29;20189;-57
2023/06/11 06:31:24;;;;;;;4.70;4.20;;;;;;;24.79;68.96;97612.97;4934564;29;20257;-57
2023/06/11 06:33:50;;;;;;;5.00;4.20;;;;;;;24.92;68.39;97624.28;4963554;28;20192;-57
2023/06/11 06:36:16;;;;;;;7.35;3.95;;;;;;;24.95;68.97;97618.53;4973095;28;20228;-57
2023/06/11 06:38:42;;;;;;;6.10;4.55;;;;;;;25.01;68.80;97614.25;4973103;28;20712;-58
2023/06/11 06:41:08;;;;;;;4.65;4.15;;;;;;;25.06;70.34;97617.88;4973043;28;20224;-57
2023/06/11 06:43:34;;;;;;;5.10;4.68;;;;;;;24.96;70.73;97619.38;4987491;28;20286;-57
2023/06/11 06:46:00;;;;;;;5.07;4.10;;;;;;;24.98;70.74;97623.44;4992239;28;20227;-57
2023/06/11 06:48:26;;;;;;;4.65;4.25;;;;;;;24.99;71.35;97617.09;5001888;28;20190;-57
2023/06/11 06:50:51;;;;;;;4.95;4.45;;;;;;;24.95;71.34;97601.88;5011776;28;20241;-57
2023/06/11 06:53:17;;;;;;;5.90;4.63;;;;;;;25.03;71.99;97607.69;5011882;28;20201;-57
2023/06/11 06:55:44;;;;;;;4.72;4.43;;;;;;;24.94;71.91;97600.22;5011910;28;20190;-57
2023/06/11 06:58:10;;;;;;;5.32;4.78;;;;;;;24.93;72.72;97602.06;5011809;28;20182;-57
2023/06/11 07:00:35;;;;;;;5.07;4.20;;;;;;;25.08;72.08;97626.38;5011807;28;20202;-57
2023/06/11 07:03:01;;;;;;;4.90;4.40;;;;;;;25.15;72.07;97611.28;5011735;28;20554;-57
2023/06/11 07:05:27;;;;;;;5.53;5.00;;;;;;;25.20;73.05;97614.06;5013754;28;20265;-57
2023/06/11 07:07:53;;;;;;;8.52;4.38;;;;;;;25.26;73.95;97609.81;5031397;28;20586;-57
2023/06/11 07:10:18;;;;;;;8.57;5.00;;;;;;;25.25;74.08;97614.28;5031376;28;20274;-57
2023/06/11 07:12:44;;;;;;;6.55;4.93;;;;;;;25.26;73.99;97613.25;5031633;28;20802;-57
2023/06/11 07:15:10;;;;;;;5.93;4.95;;;;;;;25.20;72.83;97598.19;5031301;28;20221;-57
2023/06/11 07:17:35;;;;;;;5.00;4.55;;;;;;;25.29;73.02;97598.75;5031248;28;20188;-57
2023/06/11 07:20:01;;;;;;;7.43;5.30;;;;;;;25.24;71.88;97601.25;5062672;28;20679;-57
2023/06/11 07:22:26;;;;;;;8.35;4.80;;;;;;;25.41;71.74;97620.84;5011246;28;20186;-57
2023/06/11 07:24:51;;;;;;;6.80;4.82;;;;;;;25.46;72.10;97619.19;5011246;28;20215;-57
2023/06/11 07:27:17;;;;;;;4.43;4.03;;;;;;;25.41;71.21;97600.50;5011229;28;20348;-57
2023/06/11 07:29:42;;;;;;;5.03;4.53;;;;;;;25.49;71.55;97616.09;5010728;28;20665;-57
2023/06/11 07:32:08;;;;;;;6.78;4.40;;;;;;;25.54;72.12;97626.06;5011244;28;20240;-57
2023/06/11 07:34:34;;;;;;;5.38;4.60;;;;;;;25.49;71.30;97620.59;5011449;28;20210;-57
2023/06/11 07:36:59;;;;;;;6.43;5.40;;;;;;;25.32;70.83;97591.19;5011084;28;20286;-57
2023/06/11 07:39:25;;;;;;;5.75;4.50;;;;;;;25.41;70.33;97621.69;5011096;28;20182;-57
2023/06/11 07:41:51;;;;;;;5.53;4.57;;;;;;;25.53;69.70;97627.06;5010821;28;20563;-57
2023/06/11 07:44:16;;;;;;;5.35;4.85;;;;;;;25.50;70.33;97612.44;5010950;28;20299;-56
2023/06/11 07:46:43;;;;;;;5.38;4.65;;;;;;;25.55;69.85;97601.97;5010919;28;20268;-57
2023/06/11 07:49:09;;;;;;;5.97;4.75;;;;;;;25.78;67.67;97625.22;4971683;28;20198;-57
2023/06/11 07:51:35;;;;;;;4.93;4.40;;;;;;;25.81;66.59;97620.28;4971791;28;20719;-57
2023/06/11 07:54:01;;;;;;;4.28;3.88;;;;;;;25.90;67.26;97626.94;5000859;28;20249;-57
2023/06/11 07:56:26;;;;;;;5.47;4.68;;;;;;;25.90;63.63;97618.19;5010769;28;20187;-57
2023/06/11 07:58:52;;;;;;;4.63;4.22;;;;;;;25.97;62.95;97630.34;5010611;28;20264;-57
2023/06/11 08:01:18;;;;;;;5.97;5.32;;;;;;;25.93;63.72;97610.59;5010654;28;20265;-57
2023/06/11 08:03:43;;;;;;;7.78;4.75;;;;;;;26.11;64.27;97623.84;5010625;28;20174;-57
2023/06/11 08:06:09;;;;;;;6.30;4.68;;;;;;;26.23;63.47;97626.59;5010647;28;20257;-57
2023/06/11 08:08:35;;;;;;;6.03;4.25;;;;;;;26.19;61.29;97604.97;5010427;28;20187;-57
2023/06/11 08:11:01;;;;;;;4.70;3.70;;;;;;;26.30;61.12;97608.75;5010542;28;20174;-57
2023/06/11 08:13:26;;;;;;;5.22;4.45;;;;;;;26.36;60.02;97626.44;5025307;28;20251;-57
2023/06/11 08:15:52;;;;;;;4.68;4.28;;;;;;;26.22;60.81;97604.56;5030088;28;20182;-57
2023/06/11 08:18:17;;;;;;;4.97;4.32;;;;;;;26.32;61.26;97620.75;5030147;28;20182;-57
2023/06/11 08:20:43;;;;;;;6.07;4.50;;;;;;;26.30;60.00;97604.22;5030137;28;20691;-57
2023/06/11 08:23:08;;;;;;;4.63;3.95;;;;;;;26.35;59.13;97615.00;5030057;28;20229;-57
2023/06/11 08:25:36;;;;;;;5.40;4.90;;;;;;;26.16;59.70;97610.75;5033739;28;20806;-57
2023/06/11 08:28:02;;;;;;;6.90;4.47;;;;;;;26.09;57.99;97625.94;5072226;28;20180;-57
2023/06/11 08:30:27;;;;;;;4.97;4.35;;;;;;;25.95;59.28;97602.44;5072177;28;20623;-57
2023/06/11 08:32:53;;;;;;;8.48;4.63;;;;;;;26.13;59.20;97629.72;5072231;28;20257;-57
2023/06/11 08:35:20;;;;;;;7.78;4.70;;;;;;;26.02;58.38;97603.94;5072237;28;20169;-57
2023/06/11 08:37:46;;;;;;;7.90;4.72;;;;;;;26.15;57.71;97625.03;5072470;28;20263;-57
2023/06/11 08:40:12;;;;;;;8.15;4.50;;;;;;;26.24;54.61;97622.91;5072499;28;20255;-57
2023/06/11 08:42:38;;;;;;;6.05;4.45;;;;;;;26.37;55.63;97626.19;5071313;28;20173;-57
2023/06/11 08:45:04;;;;;;;6.60;3.95;;;;;;;26.53;52.83;97630.88;5071753;28;20556;-57
2023/06/11 08:47:33;;;;;;;6.72;4.20;;;;;;;26.41;48.71;97619.41;5072153;28;20263;-57
2023/06/11 08:49:59;;;;;;;6.40;3.70;;;;;;;26.49;48.42;97627.06;5072082;28;20180;-57
2023/06/11 08:52:26;;;;;;;4.97;4.00;;;;;;;26.74;48.33;97633.09;5072072;28;20183;-57
2023/06/11 08:54:52;;;;;;;5.75;4.10;;;;;;;26.82;48.48;97621.34;5072035;28;20638;-57
2023/06/11 08:57:19;;;;;;;7.32;4.05;;;;;;;27.04;48.21;97627.72;5071723;28;20558;-57
2023/06/11 08:59:44;;;;;;;5.15;3.83;;;;;;;27.13;48.26;97621.06;5071933;28;20653;-57
2023/06/11 09:02:10;;;;;;;4.72;3.85;;;;;;;27.18;48.21;97618.56;5071992;28;20177;-57
2023/06/11 09:04:37;;;;;;;7.78;3.83;;;;;;;27.43;48.34;97629.81;5072052;28;20199;-57
2023/06/11 09:07:03;;;;;;;8.48;4.22;;;;;;;27.47;48.32;97613.16;5071785;28;20208;-57
2023/06/11 09:09:28;;;;;;;6.10;3.92;;;;;;;27.64;47.51;97626.59;5071834;28;20293;-58
2023/06/11 09:11:54;;;;;;;8.68;3.97;;;;;;;27.66;47.29;97620.00;5009708;28;20684;-56
2023/06/11 09:14:20;;;;;;;7.18;3.90;;;;;;;27.66;46.48;97604.06;5009662;28;20738;-56
2023/06/11 09:16:47;;;;;;;4.20;3.65;;;;;;;27.56;44.77;97603.00;4970469;28;20210;-57
2023/06/11 09:19:16;;;;;;;3.70;3.40;;;;;;;27.59;45.93;97600.69;4962903;28;20254;-57
2023/06/11 09:21:51;;;;;;;4.07;3.30;;;;;;;27.82;44.37;97614.00;4970707;28;20183;-57
2023/06/11 09:24:18;;;;;;;3.72;3.42;;;;;;;27.89;44.76;97624.53;4970625;28;20670;-57
2023/06/11 09:26:58;;;;;;;6.22;3.40;;;;;;;27.78;44.08;97604.88;4970542;28;20305;-57
2023/06/11 09:29:25;;;;;;;5.13;3.40;;;;;;;27.75;45.01;97607.97;4970650;28;20179;-57
2023/06/11 09:32:07;;;;;;;4.50;3.35;;;;;;;27.93;45.76;97613.19;4970502;28;20211;-57
2023/06/11 09:34:33;;;;;;;8.10;4.03;;;;;;;28.09;44.95;97619.63;4970570;28;20188;-57
2023/06/11 09:37:00;;;;;;;6.70;3.88;;;;;;;28.21;44.66;97615.13;4970518;28;20196;-57
2023/06/11 09:39:25;;;;;;;8.48;3.67;;;;;;;28.39;43.58;97610.44;4970513;28;20212;-58
2023/06/11 09:41:52;;;;;;;4.18;3.20;;;;;;;28.40;41.16;97600.63;4974488;28;20238;-57
2023/06/11 09:44:21;;;;;;;4.50;3.30;;;;;;;28.53;41.05;97622.44;5029211;28;20185;-57
2023/06/11 09:46:47;;;;;;;7.40;3.15;;;;;;;28.48;41.26;97616.19;5033104;28;20209;-57
2023/06/11 09:49:15;;;;;;;3.47;3.17;;;;;;;28.46;40.48;97608.44;5071504;28;20544;-57
2023/06/11 09:51:41;;;;;;;3.45;2.92;;;;;;;28.62;41.10;97620.22;5029081;28;20205;-57
2023/06/11 09:54:07;;;;;;;10.52;3.30;;;;;;;28.45;41.35;97593.53;5031083;28;20197;-58
2023/06/11 09:56:35;;;;;;;5.28;2.90;;;;;;;28.51;41.86;97602.44;5032650;28;20217;-58
2023/06/11 09:59:02;;;;;;;5.25;2.92;;;;;;;28.51;42.98;97597.91;5032607;28;20178;-58
2023/06/11 10:01:29;;;;;;;3.38;3.10;;;;;;;28.53;41.57;97601.16;5032654;28;20185;-58
2023/06/11 10:03:56;;;;;;;3.30;2.80;;;;;;;28.44;41.12;97577.78;5032636;28;20185;-55
2023/06/11 10:06:25;;;;;;;3.65;2.40;;;;;;;28.55;39.18;97598.22;5032485;28;20221;-57
2023/06/11 10:08:53;;;;;;;3.05;2.78;;;;;;;28.23;40.27;97589.84;4992915;28;20183;-57
2023/06/11 10:11:23;;;;;;;5.75;3.78;;;;;;;28.40;42.35;97596.09;4993102;28;20203;-57
2023/06/11 10:13:59;;;;;;;6.78;4.60;;;;;;;28.51;41.32;97597.91;4993071;28;20231;-57
2023/06/11 10:16:25;;;;;;;7.47;3.30;;;;;;;28.49;41.10;97592.00;4993060;28;20187;-57
2023/06/11 10:18:52;;;;;;;7.30;3.30;;;;;;;28.50;40.51;97582.97;4992835;28;20237;-57
2023/06/11 10:21:18;;;;;;;6.38;2.97;;;;;;;28.60;41.19;97577.84;4992926;28;20187;-57
2023/06/11 10:23:50;;;;;;;3.75;2.78;;;;;;;28.64;41.22;97575.50;5011276;28;20179;-57
2023/06/11 10:26:16;;;;;;;5.63;2.83;;;;;;;28.49;40.34;97560.06;4985159;28;20250;-57
2023/06/11 10:28:48;;;;;;;7.32;3.17;;;;;;;28.71;41.20;97581.50;4992734;28;20221;-57
2023/06/11 10:31:25;;;;;;;4.65;2.58;;;;;;;28.84;38.99;97583.84;4992600;28;20226;-57
2023/06/11 10:33:50;;;;;;;5.13;2.60;;;;;;;28.78;39.12;97566.97;4970378;28;20188;-57
2023/06/11 10:36:25;;;;;;;4.15;2.22;;;;;;;28.94;38.78;97568.88;4973237;28;20195;-57
2023/06/11 10:38:52;;;;;;;5.28;3.38;;;;;;;29.01;39.66;97572.22;4973182;28;20712;-57
2023/06/11 10:41:28;;;;;;;3.35;2.30;;;;;;;29.08;38.14;97575.50;4972929;28;20250;-56
2023/06/11 10:43:56;;;;;;;6.90;4.47;;;;;;;29.31;39.25;97577.19;4972989;28;20191;-57
2023/06/11 10:46:22;;;;;;;3.35;2.60;;;;;;;29.58;38.10;97573.66;4972702;28;20277;-56
2023/06/11 10:48:53;;;;;;;2.72;2.53;;;;;;;29.68;37.22;97557.78;4953417;29;20185;-57
2023/06/11 10:51:19;;;;;;;7.70;2.70;;;;;;;30.01;38.22;97568.38;4953528;29;20627;-57
2023/06/11 10:53:58;;;;;;;4.03;2.72;;;;;;;30.10;37.39;97571.44;4953559;28;20215;-57
2023/06/11 10:56:24;;;;;;;2.70;2.40;;;;;;;30.14;37.62;97568.03;4956241;28;20780;-57
2023/06/11 10:58:50;;;;;;;3.30;2.58;;;;;;;30.11;37.42;97575.72;4972762;28;20188;-57
2023/06/11 11:01:19;;;;;;;5.35;2.65;;;;;;;30.35;37.44;97580.56;4972715;28;20188;-57
2023/06/11 11:03:46;;;;;;;4.75;2.60;;;;;;;30.34;36.91;97567.44;4973624;28;20242;-57
2023/06/11 11:06:13;;;;;;;5.38;2.58;;;;;;;30.08;37.34;97568.97;4971641;28;20219;-57
2023/06/11 11:08:38;;;;;;;7.15;2.67;;;;;;;30.02;38.51;97555.84;4972596;28;20671;-57
2023/06/11 11:11:04;;;;;;;6.95;2.63;;;;;;;30.03;38.30;97560.13;4972562;28;20299;-57
2023/06/11 11:13:30;;;;;;;3.88;2.50;;;;;;;30.08;38.09;97570.88;4991862;28;20254;-57
2023/06/11 11:15:58;;;;;;;2.80;2.30;;;;;;;29.99;38.04;97567.00;4991789;28;20653;-57
2023/06/11 11:18:23;;;;;;;4.50;2.80;;;;;;;29.74;38.23;97538.13;4986733;28;20199;-57
2023/06/11 11:20:53;;;;;;;4.82;3.20;;;;;;;30.12;38.14;97567.47;5010024;28;20617;-57
2023/06/11 11:23:18;;;;;;;7.13;2.65;;;;;;;30.23;37.68;97553.19;5011278;28;20183;-57
2023/06/11 11:25:44;;;;;;;4.75;2.97;;;;;;;30.27;38.32;97557.00;5011251;28;20287;-57
2023/06/11 11:28:11;;;;;;;3.58;2.40;;;;;;;30.45;37.24;97553.97;5011280;28;20185;-57
2023/06/11 11:30:39;;;;;;;5.50;2.42;;;;;;;30.61;37.16;97525.56;5020481;28;20271;-57